sensor_id;sensor_type;location;lat;lon;timestamp;pressure;altitude;pressure_sealevel;temperature;humidity
23318;BME280;11831;55.918;37.746;2023-07-29T00:01:34;98515.37;;;18.36;0.00
23318;BME280;11831;55.918;37.746;2023-07-29T00:04:01;98524.50;;;18.12;0.00
23318;BME280;11831;55.918;37.746;2023-07-29T00:06:28;98519.28;;;18.57;0.00
23318;BME280;11831;55.918;37.746;2023-07-29T00:08:54;98507.56;;;18.75;0.00
23318;BME280;11831;55.918;37.746;2023-07-29T00:11:20;98511.97;;;18.85;0.00
23318;BME280;11831;55.918;37.746;2023-07-29T00:13:47;98518.19;;;18.58;0.00
23318;BME280;11831;55.918;37.746;2023-07-29T00:16:16;98524.91;;;18.60;0.00
23318;BME280;11831;55.918;37.746;2023-07-29T00:18:43;98525.00;;;18.55;0.00
23318;BME280;11831;55.918;37.746;2023-07-29T00:21:10;98525.41;;;18.21;0.00
23318;BME280;11831;55.918;37.746;2023-07-29T00:23:36;98503.19;;;18.38;0.00
23318;BME280;11831;55.918;37.746;2023-07-29T00:26:03;98507.25;;;18.36;0.00
23318;BME280;11831;55.918;37.746;2023-07-29T00:28:29;98510.66;;;18.00;0.00
23318;BME280;11831;55.918;37.746;2023-07-29T00:30:56;98515.94;;;17.91;0.00
23318;BME280;11831;55.918;37.746;2023-07-29T00:33:22;98516.50;;;18.07;0.00
23318;BME280;11831;55.918;37.746;2023-07-29T00:35:49;98517.47;;;17.97;0.00
23318;BME280;11831;55.918;37.746;2023-07-29T00:38:15;98521.16;;;18.02;0.00
23318;BME280;11831;55.918;37.746;2023-07-29T00:40:42;98521.78;;;17.98;0.00
23318;BME280;11831;55.918;37.746;2023-07-29T00:43:09;98513.66;;;17.98;0.00
23318;BME280;11831;55.918;37.746;2023-07-29T00:45:36;98519.75;;;17.90;0.00
23318;BME280;11831;55.918;37.746;2023-07-29T00:48:03;98517.66;;;18.01;0.00
23318;BME280;11831;55.918;37.746;2023-07-29T00:50:31;98517.00;;;18.50;0.00
23318;BME280;11831;55.918;37.746;2023-07-29T00:52:59;98524.00;;;18.24;0.00
23318;BME280;11831;55.918;37.746;2023-07-29T00:55:26;98525.03;;;18.42;0.00
23318;BME280;11831;55.918;37.746;2023-07-29T00:57:54;98521.81;;;18.40;0.00
23318;BME280;11831;55.918;37.746;2023-07-29T01:00:21;98511.00;;;18.40;0.00
23318;BME280;11831;55.918;37.746;2023-07-29T01:02:48;98516.72;;;18.38;0.00
23318;BME280;11831;55.918;37.746;2023-07-29T01:05:16;98505.56;;;18.26;0.00
23318;BME280;11831;55.918;37.746;2023-07-29T01:07:49;98508.28;;;18.12;0.00
23318;BME280;11831;55.918;37.746;2023-07-29T01:10:52;98515.66;;;17.93;0.00
23318;BME280;11831;55.918;37.746;2023-07-29T01:13:44;98501.63;;;17.77;0.00
23318;BME280;11831;55.918;37.746;2023-07-29T01:16:23;98522.22;;;17.73;0.00
23318;BME280;11831;55.918;37.746;2023-07-29T01:18:53;98514.56;;;17.94;0.00
23318;BME280;11831;55.918;37.746;2023-07-29T01:21:21;98499.03;;;17.86;0.00
23318;BME280;11831;55.918;37.746;2023-07-29T01:23:52;98512.59;;;17.67;0.00
23318;BME280;11831;55.918;37.746;2023-07-29T01:26:19;98505.84;;;17.83;0.00
23318;BME280;11831;55.918;37.746;2023-07-29T01:28:45;98500.09;;;17.71;0.00
23318;BME280;11831;55.918;37.746;2023-07-29T01:31:34;98504.53;;;17.81;0.00
23318;BME280;11831;55.918;37.746;2023-07-29T01:34:29;98493.66;;;17.67;0.00
23318;BME280;11831;55.918;37.746;2023-07-29T01:36:58;98487.44;;;17.34;0.00
23318;BME280;11831;55.918;37.746;2023-07-29T01:39:29;98494.03;;;17.60;0.00
23318;BME280;11831;55.918;37.746;2023-07-29T01:41:58;98485.44;;;17.39;0.00
23318;BME280;11831;55.918;37.746;2023-07-29T01:44:25;98498.00;;;17.49;0.00
23318;BME280;11831;55.918;37.746;2023-07-29T01:46:52;98495.97;;;17.74;0.00
23318;BME280;11831;55.918;37.746;2023-07-29T01:49:18;98480.34;;;17.38;0.00
23318;BME280;11831;55.918;37.746;2023-07-29T01:51:45;98478.50;;;17.52;0.00
23318;BME280;11831;55.918;37.746;2023-07-29T01:54:11;98470.22;;;17.30;0.00
23318;BME280;11831;55.918;37.746;2023-07-29T01:56:38;98475.25;;;17.69;0.00
23318;BME280;11831;55.918;37.746;2023-07-29T01:59:04;98479.91;;;17.63;0.00
23318;BME280;11831;55.918;37.746;2023-07-29T02:01:30;98481.72;;;17.54;0.00
23318;BME280;11831;55.918;37.746;2023-07-29T02:03:57;98474.19;;;17.51;0.00
23318;BME280;11831;55.918;37.746;2023-07-29T02:06:23;98466.50;;;17.58;0.00
23318;BME280;11831;55.918;37.746;2023-07-29T02:08:50;98469.53;;;17.71;0.00
23318;BME280;11831;55.918;37.746;2023-07-29T02:11:17;98465.88;;;17.80;0.00
23318;BME280;11831;55.918;37.746;2023-07-29T02:13:46;98468.50;;;17.85;0.00
23318;BME280;11831;55.918;37.746;2023-07-29T02:16:12;98464.81;;;18.09;0.00
23318;BME280;11831;55.918;37.746;2023-07-29T02:18:39;98459.66;;;18.48;0.00
23318;BME280;11831;55.918;37.746;2023-07-29T02:21:05;98450.47;;;18.22;0.00
23318;BME280;11831;55.918;37.746;2023-07-29T02:23:32;98456.09;;;18.12;0.00
23318;BME280;11831;55.918;37.746;2023-07-29T02:25:59;98456.47;;;18.05;0.00
23318;BME280;11831;55.918;37.746;2023-07-29T02:28:25;98462.56;;;17.97;0.00
23318;BME280;11831;55.918;37.746;2023-07-29T02:31:11;98462.06;;;17.95;0.00
23318;BME280;11831;55.918;37.746;2023-07-29T02:33:38;98457.88;;;18.16;0.00
23318;BME280;11831;55.918;37.746;2023-07-29T02:36:04;98478.69;;;17.88;0.00
23318;BME280;11831;55.918;37.746;2023-07-29T02:38:31;98461.47;;;17.98;0.00
23318;BME280;11831;55.918;37.746;2023-07-29T02:40:57;98468.19;;;17.87;0.00
23318;BME280;11831;55.918;37.746;2023-07-29T02:43:24;98479.50;;;17.89;0.00
23318;BME280;11831;55.918;37.746;2023-07-29T02:45:50;98469.78;;;18.02;0.00
23318;BME280;11831;55.918;37.746;2023-07-29T02:48:16;98487.62;;;17.56;0.00
23318;BME280;11831;55.918;37.746;2023-07-29T02:50:43;98478.00;;;17.83;0.00
23318;BME280;11831;55.918;37.746;2023-07-29T02:53:09;98477.28;;;17.77;0.00
23318;BME280;11831;55.918;37.746;2023-07-29T02:55:39;98480.78;;;17.78;0.00
23318;BME280;11831;55.918;37.746;2023-07-29T02:58:06;98473.50;;;17.78;0.00
23318;BME280;11831;55.918;37.746;2023-07-29T03:00:33;98469.16;;;17.45;0.00
23318;BME280;11831;55.918;37.746;2023-07-29T03:02:59;98463.19;;;17.80;0.00
23318;BME280;11831;55.918;37.746;2023-07-29T03:05:29;98466.38;;;17.50;0.00
23318;BME280;11831;55.918;37.746;2023-07-29T03:07:55;98475.28;;;17.50;0.00
23318;BME280;11831;55.918;37.746;2023-07-29T03:10:22;98472.75;;;17.73;0.00
23318;BME280;11831;55.918;37.746;2023-07-29T03:12:48;98480.09;;;17.86;0.00
23318;BME280;11831;55.918;37.746;2023-07-29T03:15:15;98489.63;;;17.83;0.00
23318;BME280;11831;55.918;37.746;2023-07-29T03:17:41;98485.31;;;17.96;0.00
23318;BME280;11831;55.918;37.746;2023-07-29T03:20:08;98481.25;;;18.89;0.00
23318;BME280;11831;55.918;37.746;2023-07-29T03:22:34;98466.31;;;18.92;0.00
23318;BME280;11831;55.918;37.746;2023-07-29T03:25:01;98471.84;;;18.87;0.00
23318;BME280;11831;55.918;37.746;2023-07-29T03:27:30;98463.19;;;19.21;0.00
23318;BME280;11831;55.918;37.746;2023-07-29T03:29:56;98453.53;;;19.06;0.00
23318;BME280;11831;55.918;37.746;2023-07-29T03:32:22;98470.56;;;18.57;0.00
23318;BME280;11831;55.918;37.746;2023-07-29T03:34:49;98466.16;;;18.61;0.00
23318;BME280;11831;55.918;37.746;2023-07-29T03:37:16;98469.78;;;18.56;0.00
23318;BME280;11831;55.918;37.746;2023-07-29T03:39:42;98452.56;;;18.88;0.00
23318;BME280;11831;55.918;37.746;2023-07-29T03:42:09;98450.75;;;18.48;0.00
23318;BME280;11831;55.918;37.746;2023-07-29T03:44:35;98445.03;;;18.49;0.00
23318;BME280;11831;55.918;37.746;2023-07-29T03:47:01;98447.78;;;18.08;0.00
23318;BME280;11831;55.918;37.746;2023-07-29T03:49:28;98450.34;;;17.86;0.00
23318;BME280;11831;55.918;37.746;2023-07-29T03:51:54;98454.88;;;17.77;0.00
23318;BME280;11831;55.918;37.746;2023-07-29T03:54:21;98446.94;;;17.94;0.00
23318;BME280;11831;55.918;37.746;2023-07-29T03:56:47;98444.28;;;18.08;0.00
23318;BME280;11831;55.918;37.746;2023-07-29T03:59:14;98434.53;;;17.79;0.00
23318;BME280;11831;55.918;37.746;2023-07-29T04:01:40;98445.84;;;17.95;0.00
23318;BME280;11831;55.918;37.746;2023-07-29T04:04:06;98443.44;;;17.80;0.00
23318;BME280;11831;55.918;37.746;2023-07-29T04:06:33;98438.03;;;17.80;0.00
23318;BME280;11831;55.918;37.746;2023-07-29T04:08:59;98444.28;;;17.61;0.00
23318;BME280;11831;55.918;37.746;2023-07-29T04:11:26;98423.28;;;17.72;0.00
23318;BME280;11831;55.918;37.746;2023-07-29T04:13:52;98436.00;;;17.72;0.00
23318;BME280;11831;55.918;37.746;2023-07-29T04:16:19;98436.91;;;17.67;0.00
23318;BME280;11831;55.918;37.746;2023-07-29T04:18:46;98435.44;;;18.16;0.00
23318;BME280;11831;55.918;37.746;2023-07-29T04:21:12;98429.44;;;17.91;0.00
23318;BME280;11831;55.918;37.746;2023-07-29T04:23:38;98430.09;;;18.52;0.00
23318;BME280;11831;55.918;37.746;2023-07-29T04:26:06;98423.19;;;18.46;0.00
23318;BME280;11831;55.918;37.746;2023-07-29T04:28:32;98418.53;;;18.60;0.00
23318;BME280;11831;55.918;37.746;2023-07-29T04:30:59;98413.53;;;18.67;0.00
23318;BME280;11831;55.918;37.746;2023-07-29T04:33:26;98414.16;;;18.86;0.00
23318;BME280;11831;55.918;37.746;2023-07-29T04:35:52;98414.44;;;18.99;0.00
23318;BME280;11831;55.918;37.746;2023-07-29T04:38:18;98408.87;;;18.81;0.00
23318;BME280;11831;55.918;37.746;2023-07-29T04:40:45;98402.19;;;18.65;0.00
23318;BME280;11831;55.918;37.746;2023-07-29T04:43:11;98396.16;;;19.04;0.00
23318;BME280;11831;55.918;37.746;2023-07-29T04:45:42;98389.16;;;18.67;0.00
23318;BME280;11831;55.918;37.746;2023-07-29T04:48:09;98402.66;;;18.81;0.00
23318;BME280;11831;55.918;37.746;2023-07-29T04:50:36;98398.97;;;18.77;0.00
23318;BME280;11831;55.918;37.746;2023-07-29T04:53:02;98380.53;;;18.65;0.00
23318;BME280;11831;55.918;37.746;2023-07-29T04:55:28;98400.00;;;18.53;0.00
23318;BME280;11831;55.918;37.746;2023-07-29T04:57:55;98397.69;;;18.74;0.00
23318;BME280;11831;55.918;37.746;2023-07-29T05:00:22;98390.22;;;18.44;0.00
23318;BME280;11831;55.918;37.746;2023-07-29T05:02:49;98398.75;;;18.23;0.00
23318;BME280;11831;55.918;37.746;2023-07-29T05:05:15;98383.84;;;17.71;0.00
23318;BME280;11831;55.918;37.746;2023-07-29T05:07:41;98398.19;;;17.85;0.00
23318;BME280;11831;55.918;37.746;2023-07-29T05:10:08;98375.75;;;17.71;0.00
23318;BME280;11831;55.918;37.746;2023-07-29T05:12:35;98393.56;;;17.99;0.00
23318;BME280;11831;55.918;37.746;2023-07-29T05:15:01;98383.06;;;17.84;0.00
23318;BME280;11831;55.918;37.746;2023-07-29T05:17:29;98371.34;;;17.89;0.00
23318;BME280;11831;55.918;37.746;2023-07-29T05:19:56;98362.63;;;17.92;0.00
23318;BME280;11831;55.918;37.746;2023-07-29T05:22:23;98379.75;;;17.87;0.00
23318;BME280;11831;55.918;37.746;2023-07-29T05:24:51;98368.44;;;17.85;0.00
23318;BME280;11831;55.918;37.746;2023-07-29T05:27:17;98376.38;;;17.82;0.00
23318;BME280;11831;55.918;37.746;2023-07-29T05:29:44;98365.72;;;17.99;0.00
23318;BME280;11831;55.918;37.746;2023-07-29T05:32:10;98359.91;;;18.06;0.00
23318;BME280;11831;55.918;37.746;2023-07-29T05:34:37;98361.53;;;17.93;0.00
23318;BME280;11831;55.918;37.746;2023-07-29T05:37:03;98360.44;;;17.80;0.00
23318;BME280;11831;55.918;37.746;2023-07-29T05:39:30;98367.09;;;18.24;0.00
23318;BME280;11831;55.918;37.746;2023-07-29T05:41:58;98373.41;;;18.06;0.00
23318;BME280;11831;55.918;37.746;2023-07-29T05:44:25;98363.44;;;17.92;0.00
23318;BME280;11831;55.918;37.746;2023-07-29T05:46:51;98366.66;;;17.81;0.00
23318;BME280;11831;55.918;37.746;2023-07-29T05:49:17;98384.25;;;17.92;0.00
23318;BME280;11831;55.918;37.746;2023-07-29T05:51:44;98377.94;;;17.96;0.00
23318;BME280;11831;55.918;37.746;2023-07-29T05:54:10;98391.16;;;17.98;0.00
23318;BME280;11831;55.918;37.746;2023-07-29T05:56:36;98393.56;;;17.99;0.00
23318;BME280;11831;55.918;37.746;2023-07-29T05:59:03;98396.66;;;18.20;0.00
23318;BME280;11831;55.918;37.746;2023-07-29T06:01:30;98389.56;;;17.83;0.00
23318;BME280;11831;55.918;37.746;2023-07-29T06:03:56;98406.50;;;18.16;0.00
23318;BME280;11831;55.918;37.746;2023-07-29T06:06:23;98387.09;;;18.37;0.00
23318;BME280;11831;55.918;37.746;2023-07-29T06:08:50;98395.75;;;18.39;0.00
23318;BME280;11831;55.918;37.746;2023-07-29T06:11:17;98394.97;;;17.97;0.00
23318;BME280;11831;55.918;37.746;2023-07-29T06:13:44;98410.59;;;18.14;0.00
23318;BME280;11831;55.918;37.746;2023-07-29T06:16:10;98408.50;;;17.97;0.00
23318;BME280;11831;55.918;37.746;2023-07-29T06:18:37;98424.72;;;18.24;0.00
23318;BME280;11831;55.918;37.746;2023-07-29T06:21:03;98428.72;;;18.13;0.00
23318;BME280;11831;55.918;37.746;2023-07-29T06:23:34;98411.91;;;18.16;0.00
23318;BME280;11831;55.918;37.746;2023-07-29T06:26:00;98421.03;;;18.56;0.00
23318;BME280;11831;55.918;37.746;2023-07-29T06:28:26;98423.44;;;18.58;0.00
23318;BME280;11831;55.918;37.746;2023-07-29T06:30:53;98420.41;;;18.23;0.00
23318;BME280;11831;55.918;37.746;2023-07-29T06:33:19;98422.16;;;18.55;0.00
23318;BME280;11831;55.918;37.746;2023-07-29T06:35:45;98420.22;;;18.20;0.00
23318;BME280;11831;55.918;37.746;2023-07-29T06:38:12;98425.47;;;18.52;0.00
23318;BME280;11831;55.918;37.746;2023-07-29T06:40:38;98417.38;;;18.39;0.00
23318;BME280;11831;55.918;37.746;2023-07-29T06:43:04;98428.41;;;18.42;0.00
23318;BME280;11831;55.918;37.746;2023-07-29T06:45:31;98431.94;;;18.15;0.00
23318;BME280;11831;55.918;37.746;2023-07-29T06:47:57;98443.75;;;18.19;0.00
23318;BME280;11831;55.918;37.746;2023-07-29T06:50:24;98447.06;;;18.16;0.00
23318;BME280;11831;55.918;37.746;2023-07-29T06:52:50;98434.69;;;18.65;0.00
23318;BME280;11831;55.918;37.746;2023-07-29T06:55:17;98433.88;;;18.65;0.00
23318;BME280;11831;55.918;37.746;2023-07-29T06:57:43;98440.22;;;18.46;0.00
23318;BME280;11831;55.918;37.746;2023-07-29T07:00:10;98439.63;;;18.36;0.00
23318;BME280;11831;55.918;37.746;2023-07-29T07:02:36;98430.87;;;18.52;0.00
23318;BME280;11831;55.918;37.746;2023-07-29T07:05:03;98440.59;;;18.53;0.00
23318;BME280;11831;55.918;37.746;2023-07-29T07:07:30;98436.34;;;18.39;0.00
23318;BME280;11831;55.918;37.746;2023-07-29T07:09:57;98445.44;;;18.43;0.00
23318;BME280;11831;55.918;37.746;2023-07-29T07:12:23;98448.00;;;18.61;0.00
23318;BME280;11831;55.918;37.746;2023-07-29T07:14:50;98447.44;;;18.51;0.00
23318;BME280;11831;55.918;37.746;2023-07-29T07:17:16;98452.19;;;18.81;0.00
23318;BME280;11831;55.918;37.746;2023-07-29T07:19:42;98462.28;;;18.40;0.00
23318;BME280;11831;55.918;37.746;2023-07-29T07:22:09;98467.66;;;18.67;0.00
23318;BME280;11831;55.918;37.746;2023-07-29T07:24:35;98458.56;;;18.49;0.00
23318;BME280;11831;55.918;37.746;2023-07-29T07:27:02;98464.09;;;18.44;0.00
23318;BME280;11831;55.918;37.746;2023-07-29T07:29:29;98458.66;;;18.03;0.00
23318;BME280;11831;55.918;37.746;2023-07-29T07:31:57;98452.47;;;18.16;0.00
23318;BME280;11831;55.918;37.746;2023-07-29T07:34:23;98453.97;;;18.22;0.00
23318;BME280;11831;55.918;37.746;2023-07-29T07:36:49;98458.47;;;18.68;0.00
23318;BME280;11831;55.918;37.746;2023-07-29T07:39:16;98447.72;;;18.63;0.00
23318;BME280;11831;55.918;37.746;2023-07-29T07:41:42;98439.34;;;18.23;0.00
23318;BME280;11831;55.918;37.746;2023-07-29T07:44:09;98448.22;;;18.51;0.00
23318;BME280;11831;55.918;37.746;2023-07-29T07:46:37;98450.97;;;18.38;0.00
23318;BME280;11831;55.918;37.746;2023-07-29T07:49:03;98450.62;;;18.67;0.00
23318;BME280;11831;55.918;37.746;2023-07-29T07:51:30;98456.63;;;18.77;0.00
23318;BME280;11831;55.918;37.746;2023-07-29T07:53:56;98442.72;;;18.70;0.00
23318;BME280;11831;55.918;37.746;2023-07-29T07:56:22;98428.41;;;18.42;0.00
23318;BME280;11831;55.918;37.746;2023-07-29T07:58:49;98451.34;;;18.31;0.00
23318;BME280;11831;55.918;37.746;2023-07-29T08:01:15;98458.06;;;18.34;0.00
23318;BME280;11831;55.918;37.746;2023-07-29T08:03:41;98462.69;;;18.19;0.00
23318;BME280;11831;55.918;37.746;2023-07-29T08:06:08;98468.66;;;18.57;0.00
23318;BME280;11831;55.918;37.746;2023-07-29T08:08:34;98457.25;;;18.33;0.00
23318;BME280;11831;55.918;37.746;2023-07-29T08:11:00;98463.47;;;18.47;0.00
23318;BME280;11831;55.918;37.746;2023-07-29T08:13:27;98463.88;;;18.27;0.00
23318;BME280;11831;55.918;37.746;2023-07-29T08:15:53;98462.06;;;18.50;0.00
23318;BME280;11831;55.918;37.746;2023-07-29T08:18:19;98471.88;;;18.59;0.00
23318;BME280;11831;55.918;37.746;2023-07-29T08:20:57;98457.84;;;18.71;0.00
23318;BME280;11831;55.918;37.746;2023-07-29T08:23:25;98463.97;;;18.63;0.00
23318;BME280;11831;55.918;37.746;2023-07-29T08:25:56;98460.53;;;18.57;0.00
23318;BME280;11831;55.918;37.746;2023-07-29T08:28:38;98432.28;;;18.64;0.00
23318;BME280;11831;55.918;37.746;2023-07-29T08:31:05;98438.50;;;18.64;0.00
23318;BME280;11831;55.918;37.746;2023-07-29T08:33:32;98454.06;;;18.45;0.00
23318;BME280;11831;55.918;37.746;2023-07-29T08:35:59;98467.59;;;18.45;0.00
23318;BME280;11831;55.918;37.746;2023-07-29T08:38:26;98461.25;;;18.49;0.00
23318;BME280;11831;55.918;37.746;2023-07-29T08:41:13;98472.34;;;18.61;0.00
23318;BME280;11831;55.918;37.746;2023-07-29T08:44:18;98477.09;;;18.56;0.00
23318;BME280;11831;55.918;37.746;2023-07-29T08:46:36;98484.94;;;18.44;0.00
23318;BME280;11831;55.918;37.746;2023-07-29T08:49:03;98489.12;;;18.64;0.00
23318;BME280;11831;55.918;37.746;2023-07-29T08:51:31;98480.25;;;18.85;0.00
23318;BME280;11831;55.918;37.746;2023-07-29T08:53:58;98468.87;;;18.47;0.00
23318;BME280;11831;55.918;37.746;2023-07-29T08:56:25;98476.09;;;18.66;0.00
23318;BME280;11831;55.918;37.746;2023-07-29T08:58:53;98471.22;;;18.90;0.00
23318;BME280;11831;55.918;37.746;2023-07-29T09:01:19;98475.78;;;18.53;0.00
23318;BME280;11831;55.918;37.746;2023-07-29T09:03:46;98468.69;;;18.44;0.00
23318;BME280;11831;55.918;37.746;2023-07-29T09:06:13;98472.19;;;18.44;0.00
23318;BME280;11831;55.918;37.746;2023-07-29T09:08:40;98475.31;;;18.10;0.00
23318;BME280;11831;55.918;37.746;2023-07-29T09:11:07;98482.94;;;18.22;0.00
23318;BME280;11831;55.918;37.746;2023-07-29T09:13:33;98476.09;;;17.97;0.00
23318;BME280;11831;55.918;37.746;2023-07-29T09:16:00;98492.66;;;18.23;0.00
23318;BME280;11831;55.918;37.746;2023-07-29T09:18:27;98482.22;;;18.30;0.00
23318;BME280;11831;55.918;37.746;2023-07-29T09:20:58;98480.91;;;18.27;0.00
23318;BME280;11831;55.918;37.746;2023-07-29T09:23:25;98490.34;;;18.16;0.00
23318;BME280;11831;55.918;37.746;2023-07-29T09:26:03;98490.94;;;18.13;0.00
23318;BME280;11831;55.918;37.746;2023-07-29T09:28:37;98490.94;;;18.41;0.00
23318;BME280;11831;55.918;37.746;2023-07-29T09:31:04;98483.31;;;18.70;0.00
23318;BME280;11831;55.918;37.746;2023-07-29T09:33:35;98470.47;;;18.62;0.00
23318;BME280;11831;55.918;37.746;2023-07-29T09:36:10;98465.28;;;19.24;0.00
23318;BME280;11831;55.918;37.746;2023-07-29T09:38:37;98462.22;;;19.17;0.00
23318;BME280;11831;55.918;37.746;2023-07-29T09:41:03;98467.13;;;19.37;0.00
23318;BME280;11831;55.918;37.746;2023-07-29T09:43:32;98470.22;;;19.22;0.00
23318;BME280;11831;55.918;37.746;2023-07-29T09:46:03;98465.78;;;19.71;0.00
23318;BME280;11831;55.918;37.746;2023-07-29T09:48:37;98469.66;;;19.34;0.00
23318;BME280;11831;55.918;37.746;2023-07-29T09:51:10;98454.75;;;19.45;0.00
23318;BME280;11831;55.918;37.746;2023-07-29T09:53:46;98442.44;;;19.39;0.00
23318;BME280;11831;55.918;37.746;2023-07-29T09:56:13;98473.81;;;19.53;0.00
23318;BME280;11831;55.918;37.746;2023-07-29T09:58:39;98474.34;;;19.42;0.00
23318;BME280;11831;55.918;37.746;2023-07-29T10:01:08;98471.19;;;19.71;0.00
23318;BME280;11831;55.918;37.746;2023-07-29T10:03:36;98471.06;;;19.76;0.00
23318;BME280;11831;55.918;37.746;2023-07-29T10:06:02;98456.38;;;19.77;0.00
23318;BME280;11831;55.918;37.746;2023-07-29T10:08:32;98468.94;;;19.64;0.00
23318;BME280;11831;55.918;37.746;2023-07-29T10:11:02;98460.47;;;19.21;0.00
23318;BME280;11831;55.918;37.746;2023-07-29T10:13:28;98462.50;;;19.15;0.00
23318;BME280;11831;55.918;37.746;2023-07-29T10:15:55;98460.66;;;19.02;0.00
23318;BME280;11831;55.918;37.746;2023-07-29T10:18:24;98473.22;;;18.98;0.00
23318;BME280;11831;55.918;37.746;2023-07-29T10:20:52;98473.22;;;18.98;0.00
23318;BME280;11831;55.918;37.746;2023-07-29T10:23:21;98468.13;;;19.19;0.00
23318;BME280;11831;55.918;37.746;2023-07-29T10:25:58;98469.34;;;19.13;0.00
23318;BME280;11831;55.918;37.746;2023-07-29T10:28:26;98454.88;;;19.62;0.00
23318;BME280;11831;55.918;37.746;2023-07-29T10:30:56;98466.56;;;19.27;0.00
23318;BME280;11831;55.918;37.746;2023-07-29T10:33:23;98460.84;;;19.28;0.00
23318;BME280;11831;55.918;37.746;2023-07-29T10:35:50;98466.31;;;19.14;0.00
23318;BME280;11831;55.918;37.746;2023-07-29T10:38:17;98459.31;;;19.58;0.00
23318;BME280;11831;55.918;37.746;2023-07-29T10:40:47;98461.34;;;19.75;0.00
23318;BME280;11831;55.918;37.746;2023-07-29T10:43:24;98457.75;;;19.21;0.00
23318;BME280;11831;55.918;37.746;2023-07-29T10:45:50;98457.62;;;19.26;0.00
23318;BME280;11831;55.918;37.746;2023-07-29T10:53:54;98478.66;;;18.98;0.00
23318;BME280;11831;55.918;37.746;2023-07-29T10:56:26;98477.34;;;19.18;0.00
23318;BME280;11831;55.918;37.746;2023-07-29T10:58:55;98470.59;;;19.07;0.00
23318;BME280;11831;55.918;37.746;2023-07-29T11:01:31;98463.50;;;19.19;0.00
23318;BME280;11831;55.918;37.746;2023-07-29T11:12:40;98471.56;;;19.11;0.00
23318;BME280;11831;55.918;37.746;2023-07-29T11:17:42;98468.97;;;19.06;0.00
23318;BME280;11831;55.918;37.746;2023-07-29T11:20:10;98461.06;;;18.73;0.00
23318;BME280;11831;55.918;37.746;2023-07-29T11:22:37;98471.19;;;19.04;0.00
23318;BME280;11831;55.918;37.746;2023-07-29T11:25:05;98483.44;;;19.01;0.00
23318;BME280;11831;55.918;37.746;2023-07-29T11:27:32;98475.13;;;19.42;0.00
23318;BME280;11831;55.918;37.746;2023-07-29T11:30:00;98461.53;;;19.34;0.00
23318;BME280;11831;55.918;37.746;2023-07-29T11:32:29;98466.97;;;19.34;0.00
23318;BME280;11831;55.918;37.746;2023-07-29T11:34:56;98468.78;;;19.02;0.00
23318;BME280;11831;55.918;37.746;2023-07-29T11:37:22;98468.56;;;19.35;0.00
23318;BME280;11831;55.918;37.746;2023-07-29T11:39:48;98470.94;;;19.59;0.00
23318;BME280;11831;55.918;37.746;2023-07-29T11:42:15;98469.66;;;19.34;0.00
23318;BME280;11831;55.918;37.746;2023-07-29T11:44:42;98463.44;;;19.33;0.00
23318;BME280;11831;55.918;37.746;2023-07-29T11:47:09;98451.00;;;19.32;0.00
23318;BME280;11831;55.918;37.746;2023-07-29T11:49:38;98463.81;;;19.18;0.00
23318;BME280;11831;55.918;37.746;2023-07-29T11:52:09;98463.13;;;19.12;0.00
23318;BME280;11831;55.918;37.746;2023-07-29T11:54:39;98501.69;;;19.09;0.00
23318;BME280;11831;55.918;37.746;2023-07-29T11:57:09;98496.38;;;19.49;0.00
23318;BME280;11831;55.918;37.746;2023-07-29T11:59:36;98501.00;;;19.48;0.00
23318;BME280;11831;55.918;37.746;2023-07-29T12:02:12;98495.59;;;19.71;0.00
23318;BME280;11831;55.918;37.746;2023-07-29T12:04:40;98485.50;;;19.40;0.00
23318;BME280;11831;55.918;37.746;2023-07-29T12:07:07;98479.94;;;19.23;0.00
23318;BME280;11831;55.918;37.746;2023-07-29T12:09:37;98495.16;;;19.10;0.00
23318;BME280;11831;55.918;37.746;2023-07-29T12:12:04;98491.75;;;19.27;0.00
23318;BME280;11831;55.918;37.746;2023-07-29T12:14:32;98495.72;;;19.43;0.00
23318;BME280;11831;55.918;37.746;2023-07-29T12:17:03;98496.38;;;19.49;0.00
23318;BME280;11831;55.918;37.746;2023-07-29T12:19:36;98487.81;;;19.11;0.00
23318;BME280;11831;55.918;37.746;2023-07-29T12:22:06;98493.72;;;19.13;0.00
23318;BME280;11831;55.918;37.746;2023-07-29T12:24:35;98489.12;;;19.13;0.00
23318;BME280;11831;55.918;37.746;2023-07-29T12:27:02;98490.66;;;19.28;0.00
23318;BME280;11831;55.918;37.746;2023-07-29T12:29:29;98496.78;;;19.34;0.00
23318;BME280;11831;55.918;37.746;2023-07-29T12:32:00;98507.53;;;19.03;0.00
23318;BME280;11831;55.918;37.746;2023-07-29T12:34:28;98495.69;;;19.21;0.00
23318;BME280;11831;55.918;37.746;2023-07-29T12:36:57;98503.47;;;19.36;0.00
23318;BME280;11831;55.918;37.746;2023-07-29T12:39:27;98496.34;;;19.63;0.00
23318;BME280;11831;55.918;37.746;2023-07-29T12:41:56;98490.44;;;19.61;0.00
23318;BME280;11831;55.918;37.746;2023-07-29T12:44:23;98497.03;;;19.68;0.00
23318;BME280;11831;55.918;37.746;2023-07-29T12:46:50;98499.53;;;19.42;0.00
23318;BME280;11831;55.918;37.746;2023-07-29T12:49:17;98503.16;;;19.15;0.00
23318;BME280;11831;55.918;37.746;2023-07-29T12:51:44;98503.00;;;19.57;0.00
23318;BME280;11831;55.918;37.746;2023-07-29T12:54:11;98496.84;;;19.65;0.00
23318;BME280;11831;55.918;37.746;2023-07-29T12:56:37;98487.22;;;19.59;0.00
23318;BME280;11831;55.918;37.746;2023-07-29T12:59:05;98479.19;;;19.76;0.00
23318;BME280;11831;55.918;37.746;2023-07-29T13:01:32;98489.81;;;19.41;0.00
23318;BME280;11831;55.918;37.746;2023-07-29T13:03:58;98482.66;;;19.23;0.00
23318;BME280;11831;55.918;37.746;2023-07-29T13:06:24;98481.44;;;18.93;0.00
23318;BME280;11831;55.918;37.746;2023-07-29T13:08:51;98475.56;;;19.13;0.00
23318;BME280;11831;55.918;37.746;2023-07-29T13:11:18;98487.44;;;19.26;0.00
23318;BME280;11831;55.918;37.746;2023-07-29T13:13:44;98488.44;;;19.08;0.00
23318;BME280;11831;55.918;37.746;2023-07-29T13:16:12;98480.84;;;19.18;0.00
23318;BME280;11831;55.918;37.746;2023-07-29T13:18:39;98479.13;;;19.00;0.00
23318;BME280;11831;55.918;37.746;2023-07-29T13:21:06;98485.81;;;19.39;0.00